Time;durP1;ratioP1;P1;durP2;ratioP2;P2;SDS_P1;SDS_P2;PMS_P1;PMS_P2;Temp;Humidity;BMP_temperature;BMP_pressure;BME280_temperature;BME280_humidity;BME280_pressure;Samples;Min_cycle;Max_cycle;Signal;HPM_P1;HPM_P2
2022/06/19 00:00:00;;;;;;;20.40;3.90;;;;;;;27.35;38.11;98941.97;338817;29;2340;-69
2022/06/19 00:00:12;;;;;;;19.08;3.92;;;;;;;27.34;37.96;98948.28;338584;29;1793;-69
2022/06/19 00:00:25;;;;;;;16.58;3.70;;;;;;;27.31;37.69;98948.66;338783;29;1752;-70
2022/06/19 00:00:37;;;;;;;18.20;3.58;;;;;;;27.22;37.92;98950.50;339137;29;1757;-70
2022/06/19 00:00:51;;;;;;;17.70;3.50;;;;;;;27.03;38.01;98942.94;338412;29;1391;-70
2022/06/19 00:01:04;;;;;;;16.08;3.38;;;;;;;26.95;38.23;98943.78;338377;29;1894;-69
2022/06/19 00:01:16;;;;;;;16.40;3.67;;;;;;;26.82;39.16;98944.34;339678;29;1085;-69
2022/06/19 00:01:29;;;;;;;14.95;3.50;;;;;;;26.83;39.11;98939.84;338906;29;2010;-69
2022/06/19 00:01:41;;;;;;;14.05;3.22;;;;;;;26.88;38.98;98946.31;339053;29;1812;-69
2022/06/19 00:01:54;;;;;;;13.65;3.13;;;;;;;26.82;38.35;98938.16;339796;29;1055;-69
2022/06/19 00:02:07;;;;;;;15.70;3.50;;;;;;;26.81;39.53;98936.50;339262;29;2291;-70
2022/06/19 00:02:21;;;;;;;16.73;3.88;;;;;;;26.81;39.05;98936.50;339378;29;1705;-70
2022/06/19 00:02:33;;;;;;;17.67;3.95;;;;;;;26.79;39.14;98938.50;340871;29;1530;-70
2022/06/19 00:02:46;;;;;;;17.75;4.10;;;;;;;26.80;39.70;98937.50;340115;29;1836;-69
2022/06/19 00:02:58;;;;;;;18.15;4.15;;;;;;;26.81;39.36;98937.34;338386;29;1119;-69
2022/06/19 00:03:15;;;;;;;16.98;3.90;;;;;;;26.56;38.72;98939.22;338508;29;1171;-69
2022/06/19 00:03:31;;;;;;;18.45;3.70;;;;;;;26.45;38.54;98947.56;338338;29;2806;-70
2022/06/19 00:03:49;;;;;;;17.23;3.97;;;;;;;26.40;39.58;98944.56;339318;29;1641;-69
2022/06/19 00:04:04;;;;;;;16.27;3.90;;;;;;;26.45;40.11;98942.22;339811;29;1088;-70
2022/06/19 00:04:17;;;;;;;14.95;3.50;;;;;;;26.48;39.68;98941.88;339085;29;1950;-69
2022/06/19 00:04:29;;;;;;;14.25;3.50;;;;;;;26.50;40.13;98937.22;340445;29;1290;-69
2022/06/19 00:04:43;;;;;;;15.90;3.50;;;;;;;26.55;39.55;98932.22;340893;28;1048;-69
2022/06/19 00:04:56;;;;;;;18.40;3.58;;;;;;;26.54;39.81;98941.22;338378;29;1091;-69
2022/06/19 00:05:08;;;;;;;18.52;3.90;;;;;;;26.57;39.75;98935.53;338457;29;1139;-69
2022/06/19 00:05:20;;;;;;;17.50;3.95;;;;;;;26.54;39.83;98941.22;338569;29;1136;-69
2022/06/19 00:05:32;;;;;;;14.32;3.60;;;;;;;26.53;39.98;98934.22;339123;29;1949;-69
2022/06/19 00:05:44;;;;;;;13.85;3.55;;;;;;;26.52;39.17;98940.53;339613;29;1870;-69
2022/06/19 00:05:57;;;;;;;15.65;3.60;;;;;;;26.48;39.38;98936.53;339799;29;1076;-69
2022/06/19 00:06:09;;;;;;;17.58;3.88;;;;;;;26.40;39.75;98937.41;338656;29;1848;-69
2022/06/19 00:06:23;;;;;;;21.15;4.28;;;;;;;26.42;39.60;98937.22;338803;29;1769;-69
2022/06/19 00:06:38;;;;;;;19.95;4.05;;;;;;;26.42;39.46;98940.75;340809;29;1036;-69
2022/06/19 00:06:51;;;;;;;14.88;3.75;;;;;;;26.39;39.03;98933.06;339828;29;1914;-69
2022/06/19 00:07:03;;;;;;;14.32;3.60;;;;;;;26.39;39.60;98937.56;339603;29;1035;-69
2022/06/19 00:07:16;;;;;;;15.82;3.60;;;;;;;26.38;39.95;98941.22;338917;29;2142;-69
2022/06/19 00:07:30;;;;;;;18.65;3.70;;;;;;;26.41;39.83;98935.56;339355;29;1744;-69
2022/06/19 00:07:43;;;;;;;17.67;3.65;;;;;;;26.42;39.64;98937.22;338512;29;1150;-69
2022/06/19 00:07:56;;;;;;;16.45;3.90;;;;;;;26.39;39.02;98938.41;338364;29;1290;-69
2022/06/19 00:08:12;;;;;;;19.10;4.57;;;;;;;26.37;39.21;98934.25;338266;29;1907;-69
2022/06/19 00:08:27;;;;;;;20.70;4.47;;;;;;;26.39;39.98;98929.59;338683;29;1625;-69
2022/06/19 00:08:39;;;;;;;18.85;4.03;;;;;;;26.39;40.03;98933.06;339912;29;1049;-69
2022/06/19 00:08:52;;;;;;;16.42;3.83;;;;;;;26.41;39.93;98935.56;338764;29;1074;-69
2022/06/19 00:09:05;;;;;;;13.80;3.45;;;;;;;26.39;39.75;98938.41;339560;29;1238;-69
2022/06/19 00:09:17;;;;;;;16.42;4.20;;;;;;;26.33;40.04;98932.94;339272;29;1436;-69
2022/06/19 00:09:29;;;;;;;17.40;4.35;;;;;;;26.33;39.67;98933.75;338449;29;2051;-69
2022/06/19 00:09:41;;;;;;;17.45;3.95;;;;;;;26.34;39.40;98932.75;339136;29;2526;-69
2022/06/19 00:09:53;;;;;;;18.48;4.13;;;;;;;26.29;39.59;98933.25;339636;29;1039;-69
2022/06/19 00:10:07;;;;;;;18.13;4.03;;;;;;;26.29;39.56;98933.25;339171;29;1860;-69
2022/06/19 00:10:19;;;;;;;14.88;3.72;;;;;;;26.29;39.78;98941.25;338671;29;1540;-69
2022/06/19 00:10:31;;;;;;;13.70;3.60;;;;;;;26.26;39.66;98933.59;340215;29;1372;-69
2022/06/19 00:10:43;;;;;;;13.10;3.42;;;;;;;26.25;39.66;98931.09;339653;29;1285;-69
2022/06/19 00:10:55;;;;;;;15.25;3.70;;;;;;;26.26;39.96;98933.59;338678;29;1041;-69
2022/06/19 00:11:10;;;;;;;15.75;4.00;;;;;;;26.27;40.04;98935.25;339607;29;1101;-69
2022/06/19 00:11:23;;;;;;;17.15;3.80;;;;;;;26.26;40.20;98935.44;337173;29;1647;-70
2022/06/19 00:11:36;;;;;;;18.42;3.83;;;;;;;26.22;40.37;98937.59;338351;29;1023;-69
2022/06/19 00:11:48;;;;;;;17.65;4.05;;;;;;;26.22;40.16;98926.94;339256;29;1024;-70
2022/06/19 00:12:00;;;;;;;18.25;4.00;;;;;;;26.17;40.26;98923.94;339131;29;1825;-69
2022/06/19 00:12:14;;;;;;;19.77;3.90;;;;;;;26.14;40.46;98929.63;338920;29;1800;-69
2022/06/19 00:12:27;;;;;;;17.88;3.80;;;;;;;26.14;40.54;98932.28;339024;29;1855;-69
2022/06/19 00:12:40;;;;;;;17.92;3.85;;;;;;;26.12;40.30;98936.94;338784;29;1648;-69
2022/06/19 00:12:52;;;;;;;17.25;3.97;;;;;;;26.02;40.83;98925.63;338648;29;1483;-69
2022/06/19 00:13:04;;;;;;;17.27;4.00;;;;;;;25.97;41.15;98930.63;338722;29;1814;-69
2022/06/19 00:13:16;;;;;;;17.60;3.78;;;;;;;25.75;41.66;98930.22;339528;29;1111;-69
2022/06/19 00:13:29;;;;;;;16.55;3.60;;;;;;;25.69;41.51;98928.22;338295;29;1675;-69
2022/06/19 00:13:42;;;;;;;14.65;3.78;;;;;;;25.51;42.20;98933.69;340034;29;1099;-70
2022/06/19 00:13:54;;;;;;;14.02;3.80;;;;;;;25.46;42.18;98926.22;340675;29;1056;-70
2022/06/19 00:14:07;;;;;;;16.83;3.75;;;;;;;25.53;42.09;98931.69;340348;29;2098;-69
2022/06/19 00:14:19;;;;;;;16.27;3.78;;;;;;;25.57;41.72;98933.03;340914;29;1792;-69
2022/06/19 00:14:33;;;;;;;15.50;3.83;;;;;;;25.63;41.68;98931.56;341772;28;1292;-69
2022/06/19 00:14:46;;;;;;;16.80;3.92;;;;;;;25.65;41.72;98930.38;339892;29;2113;-69
2022/06/19 00:14:58;;;;;;;17.58;4.07;;;;;;;25.66;41.59;98931.25;340946;29;1096;-69
2022/06/19 00:15:10;;;;;;;16.90;3.88;;;;;;;25.67;41.61;98930.22;339690;29;1801;-69
2022/06/19 00:15:22;;;;;;;16.38;3.78;;;;;;;25.67;41.98;98922.25;340750;29;1799;-69
2022/06/19 00:15:34;;;;;;;16.40;3.60;;;;;;;25.70;41.62;98924.59;340626;29;1177;-69
2022/06/19 00:15:47;;;;;;;16.08;3.70;;;;;;;25.69;41.75;98925.56;339943;29;1360;-69
2022/06/19 00:15:59;;;;;;;13.82;3.50;;;;;;;25.68;41.63;98929.25;339679;29;1195;-69
2022/06/19 00:16:11;;;;;;;13.57;3.53;;;;;;;25.68;41.55;98929.25;339041;29;1952;-69
2022/06/19 00:16:23;;;;;;;13.77;3.63;;;;;;;25.68;41.44;98923.94;338897;29;1847;-69
2022/06/19 00:16:36;;;;;;;14.85;3.63;;;;;;;25.68;41.30;98927.41;338433;29;1877;-69
2022/06/19 00:16:48;;;;;;;16.35;3.67;;;;;;;25.67;41.76;98927.56;339669;29;1087;-69
2022/06/19 00:17:01;;;;;;;17.10;3.72;;;;;;;25.66;41.57;98928.59;339780;29;1222;-69
2022/06/19 00:17:14;;;;;;;18.92;3.80;;;;;;;25.66;41.59;98925.91;338435;29;1354;-69
2022/06/19 00:17:27;;;;;;;17.02;3.80;;;;;;;25.65;41.79;98929.56;338489;29;1963;-69
2022/06/19 00:17:39;;;;;;;17.65;3.78;;;;;;;25.64;41.98;98917.25;339288;29;1688;-69
2022/06/19 00:17:51;;;;;;;16.65;3.65;;;;;;;25.64;41.86;98923.41;339688;29;1054;-70
2022/06/19 00:18:03;;;;;;;14.55;3.58;;;;;;;25.63;42.31;98926.22;339030;29;1796;-69
2022/06/19 00:18:22;;;;;;;15.30;3.80;;;;;;;25.63;41.75;98928.91;338169;29;1084;-70
2022/06/19 00:18:34;;;;;;;19.98;4.22;;;;;;;25.60;42.47;98921.25;338645;29;1657;-70
2022/06/19 00:18:46;;;;;;;19.13;4.28;;;;;;;25.59;42.44;98922.22;338665;29;2093;-70
2022/06/19 00:18:58;;;;;;;16.73;4.30;;;;;;;25.59;42.02;98919.56;339626;29;1770;-70
2022/06/19 00:19:11;;;;;;;16.23;4.00;;;;;;;25.45;41.63;98924.53;338364;29;1059;-69
2022/06/19 00:19:23;;;;;;;15.95;3.80;;;;;;;25.44;41.72;98922.88;338408;29;1191;-69
2022/06/19 00:19:36;;;;;;;16.20;3.58;;;;;;;25.44;42.05;98920.22;339507;29;1648;-69
2022/06/19 00:19:48;;;;;;;16.40;3.55;;;;;;;25.46;42.03;98925.38;339466;29;1055;-69
2022/06/19 00:20:00;;;;;;;18.17;3.50;;;;;;;25.47;42.44;98922.56;339898;29;1246;-69
2022/06/19 00:20:13;;;;;;;15.95;3.50;;;;;;;25.48;42.29;98923.41;338246;29;1875;-69
2022/06/19 00:20:25;;;;;;;16.67;3.35;;;;;;;25.48;42.55;98921.56;338591;29;1891;-69
2022/06/19 00:20:38;;;;;;;13.95;3.20;;;;;;;25.50;42.69;98916.06;339437;29;1898;-69
2022/06/19 00:20:50;;;;;;;16.77;4.10;;;;;;;25.48;42.24;98926.06;339688;29;1000;-69
2022/06/19 00:21:02;;;;;;;18.73;4.45;;;;;;;25.48;42.26;98923.41;339809;29;1299;-69
2022/06/19 00:21:16;;;;;;;20.70;4.00;;;;;;;25.48;42.49;98918.06;339875;29;1203;-68
2022/06/19 00:21:28;;;;;;;19.40;3.78;;;;;;;25.42;42.74;98919.56;338208;29;1887;-68
2022/06/19 00:21:40;;;;;;;16.33;3.75;;;;;;;25.42;43.19;98921.38;339236;29;1562;-69
2022/06/19 00:21:52;;;;;;;14.73;3.75;;;;;;;25.41;43.21;98928.50;338422;29;1187;-69
2022/06/19 00:22:05;;;;;;;14.85;3.60;;;;;;;25.42;43.12;98914.22;337931;29;1903;-69
2022/06/19 00:22:17;;;;;;;13.50;3.58;;;;;;;25.41;43.09;98915.22;338417;29;1020;-68
2022/06/19 00:22:29;;;;;;;12.67;3.17;;;;;;;25.36;42.65;98919.38;338019;29;1900;-69
2022/06/19 00:22:41;;;;;;;14.10;3.40;;;;;;;25.32;42.74;98918.88;338678;29;1963;-68
2022/06/19 00:22:53;;;;;;;18.15;3.75;;;;;;;25.23;42.79;98925.16;339989;29;1063;-69
2022/06/19 00:23:05;;;;;;;18.80;3.90;;;;;;;25.25;42.94;98917.84;340818;29;1460;-69
2022/06/19 00:23:17;;;;;;;17.50;3.88;;;;;;;25.25;43.40;98917.84;340739;29;1043;-69
2022/06/19 00:23:29;;;;;;;15.13;3.70;;;;;;;25.25;43.83;98913.38;339423;29;1869;-69
2022/06/19 00:23:43;;;;;;;15.00;3.67;;;;;;;25.27;43.85;98921.16;339725;29;2208;-70
2022/06/19 00:23:55;;;;;;;18.10;3.88;;;;;;;25.27;44.22;98918.50;340027;29;1742;-70
2022/06/19 00:24:07;;;;;;;19.83;3.97;;;;;;;25.28;44.26;98914.88;341150;29;1035;-70
2022/06/19 00:24:19;;;;;;;18.15;3.72;;;;;;;25.31;44.08;98915.38;341049;29;1603;-70
2022/06/19 00:24:32;;;;;;;15.20;3.78;;;;;;;25.32;43.80;98918.88;339867;29;1322;-69
2022/06/19 00:24:44;;;;;;;15.60;3.60;;;;;;;25.34;43.85;98916.88;339078;29;963;-69
2022/06/19 00:24:56;;;;;;;15.80;3.47;;;;;;;25.34;43.72;98916.06;339303;29;1055;-68
2022/06/19 00:25:09;;;;;;;15.55;3.40;;;;;;;25.34;43.31;98913.38;339642;29;1028;-70
2022/06/19 00:25:21;;;;;;;15.70;3.45;;;;;;;25.34;43.07;98910.72;339598;29;1189;-69
2022/06/19 00:25:34;;;;;;;13.85;3.40;;;;;;;25.34;42.88;98916.06;339102;29;1899;-69
2022/06/19 00:25:46;;;;;;;13.93;3.60;;;;;;;25.35;42.70;98905.22;338173;29;2064;-69
2022/06/19 00:25:58;;;;;;;13.43;3.50;;;;;;;25.35;42.68;98910.53;338438;29;1285;-69
2022/06/19 00:26:11;;;;;;;17.15;3.72;;;;;;;25.34;43.24;98906.22;337362;29;1829;-69
2022/06/19 00:26:23;;;;;;;18.42;4.00;;;;;;;25.36;43.26;98914.88;338027;29;1847;-69
2022/06/19 00:26:35;;;;;;;21.33;4.35;;;;;;;25.36;43.13;98908.75;338017;29;1567;-69
2022/06/19 00:26:47;;;;;;;18.58;3.88;;;;;;;25.35;43.02;98913.19;339292;29;1061;-69
2022/06/19 00:26:59;;;;;;;18.15;3.50;;;;;;;25.37;43.33;98911.22;338416;29;1069;-69
2022/06/19 00:27:11;;;;;;;17.30;3.47;;;;;;;25.38;43.27;98910.22;338257;29;1162;-69
2022/06/19 00:27:25;;;;;;;15.88;3.65;;;;;;;25.38;42.92;98907.56;338190;29;1102;-69
2022/06/19 00:27:39;;;;;;;16.30;3.90;;;;;;;25.41;42.92;98904.56;339378;29;1758;-69
2022/06/19 00:27:51;;;;;;;14.68;3.80;;;;;;;25.40;43.47;98905.59;339146;29;1755;-69
2022/06/19 00:28:04;;;;;;;14.05;3.60;;;;;;;25.41;43.56;98904.56;339732;29;1565;-69
2022/06/19 00:28:16;;;;;;;14.75;3.65;;;;;;;25.40;43.73;98905.59;338949;29;2279;-69
2022/06/19 00:28:30;;;;;;;16.25;3.78;;;;;;;25.41;44.04;98907.22;339252;29;1853;-69
2022/06/19 00:28:44;;;;;;;16.80;3.83;;;;;;;25.41;43.88;98909.88;339029;29;1302;-69
2022/06/19 00:28:57;;;;;;;17.75;4.00;;;;;;;25.41;44.07;98907.22;338287;29;1818;-69
2022/06/19 00:29:09;;;;;;;19.63;3.97;;;;;;;25.41;44.07;98909.88;338876;29;1115;-69
2022/06/19 00:29:21;;;;;;;22.17;3.93;;;;;;;25.41;44.22;98912.56;338509;29;1043;-69
2022/06/19 00:29:33;;;;;;;21.10;3.92;;;;;;;25.41;44.50;98911.72;338715;29;1891;-69
2022/06/19 00:29:45;;;;;;;19.67;4.22;;;;;;;25.40;44.33;98907.41;340295;29;1878;-69
2022/06/19 00:29:59;;;;;;;15.75;3.92;;;;;;;25.39;44.18;98903.91;339820;29;1983;-69
2022/06/19 00:30:12;;;;;;;15.98;3.80;;;;;;;25.38;44.04;98902.25;339157;29;1973;-69
2022/06/19 00:30:24;;;;;;;17.63;3.88;;;;;;;25.40;44.00;98902.91;339967;29;1055;-69
2022/06/19 00:30:36;;;;;;;16.92;4.00;;;;;;;25.41;43.83;98904.56;339792;29;1087;-69
2022/06/19 00:30:48;;;;;;;17.63;3.72;;;;;;;25.40;43.60;98899.44;339710;29;1077;-70
2022/06/19 00:31:00;;;;;;;18.55;3.47;;;;;;;25.40;43.62;98905.59;339822;29;1254;-70
2022/06/19 00:31:14;;;;;;;16.98;3.70;;;;;;;25.39;44.19;98903.91;340044;29;995;-70
2022/06/19 00:31:27;;;;;;;11.95;3.72;;;;;;;25.41;44.46;98896.59;339132;29;1856;-70
2022/06/19 00:31:39;;;;;;;11.35;3.45;;;;;;;25.40;44.32;98900.25;339514;29;1777;-70
2022/06/19 00:31:51;;;;;;;14.68;3.40;;;;;;;25.40;44.54;98900.25;340050;29;1077;-69
2022/06/19 00:32:07;;;;;;;16.17;3.57;;;;;;;25.38;44.60;98907.56;339735;29;1255;-69
2022/06/19 00:32:20;;;;;;;15.32;3.90;;;;;;;25.38;44.51;98907.56;338572;29;1148;-70
2022/06/19 00:32:32;;;;;;;15.73;3.85;;;;;;;25.35;44.57;98897.25;338661;29;1837;-70
2022/06/19 00:32:44;;;;;;;15.20;3.63;;;;;;;25.33;44.99;98909.06;339252;29;1842;-70
2022/06/19 00:32:58;;;;;;;15.20;3.47;;;;;;;25.30;45.13;98905.72;339224;29;1251;-69
2022/06/19 00:33:10;;;;;;;16.15;3.75;;;;;;;25.28;45.02;98902.38;338418;29;1077;-69
2022/06/19 00:33:22;;;;;;;14.27;3.80;;;;;;;25.25;45.48;98904.53;339032;29;1307;-70
2022/06/19 00:33:34;;;;;;;16.65;3.88;;;;;;;25.26;45.00;98908.88;339014;29;1879;-69
2022/06/19 00:33:46;;;;;;;17.60;3.80;;;;;;;25.23;45.33;98902.06;339706;29;1872;-69
2022/06/19 00:33:58;;;;;;;15.77;3.80;;;;;;;25.25;44.95;98901.88;339636;29;1841;-69
2022/06/19 00:34:10;;;;;;;12.57;3.60;;;;;;;25.27;44.44;98905.22;338194;29;1893;-69
2022/06/19 00:34:23;;;;;;;12.98;3.67;;;;;;;25.25;43.71;98907.19;339469;29;1603;-69
2022/06/19 00:34:36;;;;;;;15.02;3.83;;;;;;;25.25;43.70;98901.88;339016;29;2105;-69
2022/06/19 00:34:48;;;;;;;15.45;3.78;;;;;;;25.24;43.27;98902.88;338203;29;1177;-69
2022/06/19 00:35:03;;;;;;;14.38;4.00;;;;;;;25.23;43.22;98903.88;338863;29;1244;-70
2022/06/19 00:35:15;;;;;;;16.90;4.15;;;;;;;25.25;42.93;98901.88;340080;29;999;-69
2022/06/19 00:35:29;;;;;;;18.52;3.92;;;;;;;25.25;42.93;98901.88;339270;29;1976;-69
2022/06/19 00:35:41;;;;;;;17.48;4.00;;;;;;;25.25;43.03;98907.19;339773;29;1833;-69
2022/06/19 00:35:54;;;;;;;16.00;4.40;;;;;;;25.25;43.29;98897.41;338561;29;1077;-69
2022/06/19 00:36:06;;;;;;;14.68;4.20;;;;;;;25.25;43.23;98896.56;338067;29;1800;-69
2022/06/19 00:36:21;;;;;;;14.57;3.95;;;;;;;25.25;43.60;98900.06;338445;29;1094;-69
2022/06/19 00:36:33;;;;;;;15.70;3.72;;;;;;;25.25;44.05;98902.72;338277;29;1886;-69
2022/06/19 00:36:49;;;;;;;15.82;3.95;;;;;;;25.25;44.41;98901.88;339630;29;1250;-69
2022/06/19 00:37:02;;;;;;;15.82;3.95;;;;;;;25.26;44.17;98908.88;339717;29;1256;-69
2022/06/19 00:37:14;;;;;;;16.02;3.83;;;;;;;25.26;43.83;98908.88;339499;29;1035;-69
2022/06/19 00:37:29;;;;;;;19.00;4.10;;;;;;;25.25;43.89;98907.19;339204;29;1657;-70
2022/06/19 00:37:41;;;;;;;18.98;4.00;;;;;;;25.23;43.85;98909.19;339764;29;1794;-69
2022/06/19 00:37:54;;;;;;;20.02;4.07;;;;;;;25.24;43.91;98908.22;338432;29;1200;-70
2022/06/19 00:38:06;;;;;;;17.20;4.00;;;;;;;25.23;44.14;98909.19;338176;29;1914;-70
2022/06/19 00:38:18;;;;;;;17.50;4.20;;;;;;;25.23;43.96;98906.53;339592;29;1866;-69
2022/06/19 00:38:30;;;;;;;18.13;4.30;;;;;;;25.25;43.76;98902.72;339098;29;1730;-70
2022/06/19 00:38:42;;;;;;;16.80;4.05;;;;;;;25.26;43.92;98898.25;338748;29;1808;-69
2022/06/19 00:38:56;;;;;;;14.38;3.63;;;;;;;25.26;43.74;98900.91;339672;29;1609;-68
2022/06/19 00:39:08;;;;;;;15.52;3.40;;;;;;;25.26;43.29;98892.91;339666;29;1983;-69
2022/06/19 00:39:20;;;;;;;14.38;3.50;;;;;;;25.28;43.24;98896.25;339633;29;1072;-69
2022/06/19 00:39:39;;;;;;;13.52;3.80;;;;;;;25.29;43.00;98897.91;338897;29;1883;-69
2022/06/19 00:39:51;;;;;;;14.48;4.13;;;;;;;25.29;43.02;98892.56;338513;29;1469;-68
2022/06/19 00:40:07;;;;;;;15.02;4.22;;;;;;;25.27;43.16;98890.09;339586;29;1689;-68
2022/06/19 00:40:20;;;;;;;16.70;4.25;;;;;;;25.26;43.47;98892.91;338877;29;1946;-68
2022/06/19 00:40:33;;;;;;;15.30;4.07;;;;;;;25.21;43.70;98895.19;340475;29;1594;-70
2022/06/19 00:40:45;;;;;;;14.65;4.03;;;;;;;25.17;43.95;98891.19;339611;29;2014;-70
2022/06/19 00:40:58;;;;;;;14.90;3.83;;;;;;;25.16;44.51;98887.72;339628;29;1151;-69
2022/06/19 00:41:10;;;;;;;14.43;3.78;;;;;;;25.12;44.18;98891.69;339618;29;1191;-69
2022/06/19 00:41:24;;;;;;;15.38;3.60;;;;;;;25.07;44.19;98889.53;339533;29;1331;-69
2022/06/19 00:41:39;;;;;;;17.90;3.90;;;;;;;25.07;44.52;98889.53;339510;29;1634;-69
2022/06/19 00:41:51;;;;;;;17.20;4.13;;;;;;;25.06;45.39;98897.66;338478;29;1303;-69
2022/06/19 00:42:04;;;;;;;18.00;4.25;;;;;;;25.07;45.06;98889.53;338060;29;1243;-69
2022/06/19 00:42:16;;;;;;;19.38;4.32;;;;;;;25.07;44.79;98894.84;339144;29;1471;-69
2022/06/19 00:42:29;;;;;;;19.33;4.25;;;;;;;25.08;44.61;98896.47;339556;29;1321;-69
2022/06/19 00:42:41;;;;;;;15.52;4.07;;;;;;;25.10;44.67;98893.66;339024;29;1093;-69
2022/06/19 00:42:53;;;;;;;12.50;3.63;;;;;;;25.11;44.70;98896.19;338516;29;1068;-69
2022/06/19 00:43:05;;;;;;;12.13;3.67;;;;;;;25.15;44.52;98895.84;338434;29;1240;-70
2022/06/19 00:43:17;;;;;;;13.15;3.70;;;;;;;25.15;44.27;98890.53;339534;29;1306;-69
2022/06/19 00:43:30;;;;;;;13.43;3.70;;;;;;;25.16;44.40;98892.19;338323;29;1643;-70
2022/06/19 00:43:52;;;;;;;16.42;3.90;;;;;;;25.17;44.22;98891.19;339407;29;1339;-69
2022/06/19 00:44:07;;;;;;;13.63;3.75;;;;;;;25.16;44.51;98895.69;338912;29;1821;-69
2022/06/19 00:44:21;;;;;;;14.40;3.58;;;;;;;25.16;44.26;98892.19;338633;29;1044;-69
2022/06/19 00:44:33;;;;;;;15.93;3.70;;;;;;;25.17;43.69;98892.00;338380;29;1723;-69
2022/06/19 00:44:46;;;;;;;16.20;3.85;;;;;;;25.17;43.86;98893.84;339373;29;1176;-69
2022/06/19 00:44:58;;;;;;;15.27;3.80;;;;;;;25.16;44.11;98892.19;339804;29;1063;-69
2022/06/19 00:45:31;;;;;;;15.35;3.75;;;;;;;25.04;44.71;98889.81;338860;29;1695;-69
2022/06/19 00:45:51;;;;;;;14.05;3.78;;;;;;;25.05;45.03;98896.81;338467;29;1833;-69
2022/06/19 00:46:41;;;;;;;14.40;3.50;;;;;;;25.09;45.38;98898.16;339912;29;1127;-69
2022/06/19 00:46:53;;;;;;;17.98;3.90;;;;;;;25.07;44.77;98892.19;339189;29;1155;-68
2022/06/19 00:47:15;;;;;;;17.25;3.90;;;;;;;25.08;44.43;98898.31;339506;29;1064;-70
2022/06/19 00:47:34;;;;;;;12.07;3.72;;;;;;;25.06;44.03;98893.16;339313;29;1171;-69
2022/06/19 00:47:46;;;;;;;13.52;3.75;;;;;;;25.07;44.13;98896.63;341052;29;1008;-69
2022/06/19 00:48:00;;;;;;;15.57;3.65;;;;;;;25.07;43.98;98894.84;341032;29;1281;-69
2022/06/19 00:48:16;;;;;;;18.05;3.72;;;;;;;25.07;43.93;98900.16;339513;29;1137;-69
2022/06/19 00:48:37;;;;;;;16.33;3.58;;;;;;;25.10;44.42;98894.50;338213;29;1841;-69
2022/06/19 00:48:49;;;;;;;13.40;3.42;;;;;;;25.12;44.79;98899.66;338885;29;1203;-69
2022/06/19 00:49:01;;;;;;;12.73;3.83;;;;;;;25.12;44.85;98891.69;338489;29;1844;-70
2022/06/19 00:49:18;;;;;;;14.20;4.15;;;;;;;25.08;44.15;98890.34;339645;29;1749;-69
2022/06/19 00:49:36;;;;;;;14.05;3.80;;;;;;;24.92;44.19;98896.44;338887;29;1293;-70
2022/06/19 00:49:52;;;;;;;15.07;3.70;;;;;;;24.78;44.40;98895.22;338747;29;1367;-69
2022/06/19 00:50:30;;;;;;;19.52;4.00;;;;;;;24.79;45.34;98896.03;338543;29;1825;-69
2022/06/19 00:50:47;;;;;;;19.38;4.22;;;;;;;24.81;45.23;98899.38;339117;29;1854;-69
2022/06/19 00:51:02;;;;;;;14.23;3.80;;;;;;;24.84;44.58;98901.72;339996;29;1302;-70
2022/06/19 00:51:18;;;;;;;17.00;4.00;;;;;;;24.85;44.55;98895.41;340105;29;1533;-70
2022/06/19 00:51:31;;;;;;;16.58;3.97;;;;;;;24.87;44.57;98898.72;338561;29;1907;-69
2022/06/19 00:51:43;;;;;;;16.25;3.90;;;;;;;24.88;44.75;98901.22;338095;29;2073;-69
2022/06/19 00:52:09;;;;;;;17.65;3.75;;;;;;;24.92;45.61;98896.44;339508;29;1215;-69
2022/06/19 00:52:32;;;;;;;15.13;3.55;;;;;;;24.91;44.97;98900.94;338715;29;2079;-69
2022/06/19 00:52:44;;;;;;;15.13;3.70;;;;;;;24.92;44.39;98899.09;338666;29;1794;-70
2022/06/19 00:52:58;;;;;;;14.48;3.65;;;;;;;24.92;44.33;98896.44;339731;29;1081;-70
2022/06/19 00:53:31;;;;;;;14.48;3.80;;;;;;;24.94;44.20;98899.75;339679;29;1057;-71
2022/06/19 00:53:46;;;;;;;14.40;3.72;;;;;;;24.95;44.43;98901.44;338726;29;1683;-69
2022/06/19 00:53:59;;;;;;;14.23;3.72;;;;;;;24.91;44.87;98894.75;339674;29;876;-69
2022/06/19 00:54:15;;;;;;;15.20;4.00;;;;;;;24.89;45.66;98894.09;339147;29;1834;-68
2022/06/19 00:54:31;;;;;;;15.02;3.60;;;;;;;24.85;45.64;98895.41;338883;29;1681;-69
2022/06/19 00:54:48;;;;;;;15.10;3.45;;;;;;;24.84;46.00;98888.44;338472;29;1862;-69
2022/06/19 00:55:22;;;;;;;14.43;3.78;;;;;;;24.81;45.59;98894.91;338508;29;1023;-70
2022/06/19 00:55:40;;;;;;;15.65;3.70;;;;;;;24.81;45.74;98896.72;338853;29;1799;-69
2022/06/19 00:55:52;;;;;;;20.67;4.45;;;;;;;24.81;45.32;98894.06;339444;29;1113;-69
2022/06/19 00:56:07;;;;;;;20.55;4.47;;;;;;;24.82;45.27;98898.41;339595;29;1884;-70
2022/06/19 00:56:20;;;;;;;14.98;3.63;;;;;;;24.84;45.26;98896.41;338270;29;1241;-69
2022/06/19 00:56:32;;;;;;;15.82;3.58;;;;;;;24.85;45.00;98903.38;338461;29;1628;-70
2022/06/19 00:56:44;;;;;;;17.40;3.90;;;;;;;24.86;45.47;98897.06;339321;29;1868;-70
2022/06/19 00:56:56;;;;;;;17.33;4.03;;;;;;;24.87;45.45;98893.41;338762;29;1827;-70
2022/06/19 00:57:09;;;;;;;17.98;4.07;;;;;;;24.87;45.28;98893.41;338106;29;1734;-69
2022/06/19 00:57:23;;;;;;;19.10;3.97;;;;;;;24.88;45.12;98895.91;339021;29;1818;-70
2022/06/19 00:57:40;;;;;;;16.42;3.60;;;;;;;24.90;44.74;98896.59;338871;29;1930;-69
2022/06/19 00:58:27;;;;;;;16.35;3.83;;;;;;;24.91;45.31;98887.63;344853;23;1849;-70
2022/06/19 00:58:40;;;;;;;16.77;3.80;;;;;;;24.90;46.26;98893.94;342408;28;1099;-69
2022/06/19 00:58:53;;;;;;;16.30;3.85;;;;;;;24.91;45.72;98892.09;342376;28;1202;-70
2022/06/19 00:59:07;;;;;;;17.10;4.00;;;;;;;24.92;45.31;98896.44;342711;28;1586;-69
2022/06/19 00:59:19;;;;;;;16.80;3.70;;;;;;;24.92;44.88;98896.44;343596;28;1197;-69
2022/06/19 00:59:32;;;;;;;18.45;3.60;;;;;;;24.92;44.83;98885.81;343145;28;1805;-69
2022/06/19 00:59:51;;;;;;;18.83;3.50;;;;;;;24.90;45.39;98887.78;343857;28;1833;-68
2022/06/19 01:00:14;;;;;;;16.25;3.83;;;;;;;24.88;45.52;98892.44;343263;28;1833;-69
2022/06/19 01:00:28;;;;;;;18.05;4.05;;;;;;;24.87;45.10;98893.41;343713;28;1348;-69
2022/06/19 01:00:42;;;;;;;19.77;4.20;;;;;;;24.89;44.61;98902.06;343764;28;1548;-69
2022/06/19 01:00:58;;;;;;;22.27;4.30;;;;;;;24.91;44.95;98894.75;343689;28;1272;-69
2022/06/19 01:01:17;;;;;;;18.60;3.85;;;;;;;24.93;44.63;98895.44;343795;28;1067;-69
2022/06/19 01:01:31;;;;;;;13.70;3.67;;;;;;;24.95;45.13;98896.13;343188;28;1882;-69
2022/06/19 01:01:43;;;;;;;14.68;3.70;;;;;;;24.94;45.31;98899.75;342637;28;1026;-69
2022/06/19 01:01:57;;;;;;;15.70;3.78;;;;;;;24.94;44.53;98891.78;345284;28;1097;-69
2022/06/19 01:02:09;;;;;;;18.00;3.92;;;;;;;24.93;44.08;98887.44;344289;28;1830;-69
2022/06/19 01:02:22;;;;;;;17.15;3.80;;;;;;;24.92;44.17;98896.44;345186;28;1164;-69
2022/06/19 01:02:38;;;;;;;14.98;3.55;;;;;;;24.91;44.13;98894.75;342870;28;1744;-69
2022/06/19 01:02:53;;;;;;;14.63;3.67;;;;;;;24.88;44.11;98892.44;344443;28;1104;-69
2022/06/19 01:03:14;;;;;;;16.63;3.95;;;;;;;24.88;44.06;98892.44;342773;28;1678;-69
2022/06/19 01:03:52;;;;;;;19.48;3.97;;;;;;;24.88;43.83;98895.09;342626;28;1632;-69
2022/06/19 01:04:29;;;;;;;20.30;3.90;;;;;;;24.82;44.28;98891.25;343312;28;1978;-70
2022/06/19 01:04:46;;;;;;;14.77;3.88;;;;;;;24.83;44.04;98898.25;343201;28;1543;-69
2022/06/19 01:05:02;;;;;;;15.82;3.58;;;;;;;24.82;43.96;98896.56;342511;28;1028;-68
2022/06/19 01:05:16;;;;;;;18.13;3.75;;;;;;;24.83;44.39;98895.59;342628;28;1977;-69
2022/06/19 01:05:32;;;;;;;17.75;4.00;;;;;;;24.83;44.60;98898.25;342758;28;1720;-70
2022/06/19 01:05:46;;;;;;;16.80;3.88;;;;;;;24.83;44.72;98900.91;343137;28;1786;-69
2022/06/19 01:05:58;;;;;;;17.52;4.10;;;;;;;24.84;44.66;98899.06;343836;28;1164;-69
2022/06/19 01:06:10;;;;;;;15.75;4.15;;;;;;;24.86;44.78;98899.72;343694;28;1801;-69
2022/06/19 01:06:26;;;;;;;19.08;3.88;;;;;;;24.87;44.85;98894.28;342114;28;1277;-69
2022/06/19 01:06:41;;;;;;;17.40;3.45;;;;;;;24.90;45.47;98895.75;343304;28;1264;-69
2022/06/19 01:06:54;;;;;;;13.50;3.58;;;;;;;24.89;45.42;98896.75;342594;28;888;-69
2022/06/19 01:07:06;;;;;;;15.20;3.60;;;;;;;24.89;45.19;98897.59;342416;28;1302;-69